createdAt,value
2022-09-04T00:00:11.038Z,15.60
2022-09-04T00:02:50.352Z,15.60
2022-09-04T00:05:49.394Z,15.60
2022-09-04T00:08:52.373Z,15.70
2022-09-04T00:11:36.043Z,15.80
2022-09-04T00:14:08.282Z,15.80
2022-09-04T00:16:35.153Z,15.70
2022-09-04T00:19:14.417Z,15.50
2022-09-04T00:21:58.091Z,15.40
2022-09-04T00:24:37.986Z,15.30
2022-09-04T00:27:13.452Z,15.20
2022-09-04T00:30:02.720Z,15.10
2022-09-04T00:32:51.689Z,15.30
2022-09-04T00:35:24.539Z,15.40
2022-09-04T00:37:57.567Z,15.30
2022-09-04T00:40:35.807Z,15.10
2022-09-04T00:43:29.824Z,14.90
2022-09-04T00:46:27.206Z,15.00
2022-09-04T00:49:36.556Z,14.90
2022-09-04T00:52:37.399Z,15.00
2022-09-04T00:55:27.013Z,15.10
2022-09-04T00:58:23.209Z,15.20
2022-09-04T01:00:50.403Z,15.10
2022-09-04T01:03:40.541Z,15.10
2022-09-04T01:06:30.871Z,14.90
2022-09-04T01:09:49.834Z,14.90
2022-09-04T01:12:37.894Z,14.90
2022-09-04T01:15:16.527Z,14.80
2022-09-04T01:18:00.409Z,14.90
2022-09-04T01:20:36.041Z,15.00
2022-09-04T01:23:24.591Z,15.10
2022-09-04T01:26:32.979Z,15.10
2022-09-04T01:29:28.449Z,15.10
2022-09-04T01:32:07.696Z,15.00
2022-09-04T01:34:38.223Z,14.80
2022-09-04T01:37:35.824Z,14.90
2022-09-04T01:40:35.479Z,14.90
2022-09-04T01:43:05.969Z,14.40
2022-09-04T01:46:01.358Z,14.20
2022-09-04T01:49:06.745Z,14.20
2022-09-04T01:52:04.102Z,14.20
2022-09-04T01:54:42.667Z,14.30
2022-09-04T01:57:37.355Z,14.40
2022-09-04T02:00:10.383Z,14.40
2022-09-04T02:03:10.393Z,14.30
2022-09-04T02:05:48.584Z,14.40
2022-09-04T02:08:33.574Z,14.10
2022-09-04T02:11:12.696Z,14.10
2022-09-04T02:13:48.341Z,14.00
2022-09-04T02:16:45.860Z,14.00
2022-09-04T02:19:24.750Z,14.00
2022-09-04T02:22:02.339Z,13.80
2022-09-04T02:24:56.349Z,13.70
2022-09-04T02:27:41.585Z,13.50
2022-09-04T02:30:15.524Z,13.60
2022-09-04T02:32:42.714Z,13.60
2022-09-04T02:35:20.324Z,13.50
2022-09-04T02:38:02.288Z,13.50
2022-09-04T02:40:38.138Z,13.50
2022-09-04T02:43:35.540Z,13.60
2022-09-04T02:46:11.314Z,13.80
2022-09-04T02:48:38.141Z,13.90
2022-09-04T02:51:38.556Z,13.80
2022-09-04T02:54:38.264Z,13.60
2022-09-04T02:57:40.562Z,13.70
2022-09-04T03:00:13.638Z,13.80
2022-09-04T03:02:47.644Z,13.80
2022-09-04T03:05:29.416Z,13.70
2022-09-04T03:08:02.161Z,13.80
2022-09-04T03:10:39.139Z,13.90
2022-09-04T03:13:09.281Z,13.80
2022-09-04T03:15:52.256Z,13.80
2022-09-04T03:18:49.916Z,13.80
2022-09-04T03:21:39.151Z,13.80
2022-09-04T03:24:15.955Z,13.70
2022-09-04T03:26:50.735Z,13.50
2022-09-04T03:29:41.879Z,13.60
2022-09-04T03:32:20.432Z,13.70
2022-09-04T03:35:10.722Z,13.80
2022-09-04T03:37:46.612Z,13.60
2022-09-04T03:40:43.195Z,13.50
2022-09-04T03:43:14.956Z,13.40
2022-09-04T03:46:06.753Z,13.40
2022-09-04T03:48:57.627Z,13.50
2022-09-04T03:51:51.661Z,13.60
2022-09-04T03:54:39.499Z,13.60
2022-09-04T03:57:32.152Z,13.50
2022-09-04T04:00:13.336Z,13.40
2022-09-04T04:03:13.729Z,13.50
2022-09-04T04:05:52.771Z,13.50
2022-09-04T04:09:11.902Z,13.50
2022-09-04T04:11:57.116Z,13.30
2022-09-04T04:14:49.334Z,13.20
2022-09-04T04:17:32.535Z,13.00
2022-09-04T04:20:24.621Z,13.20
2022-09-04T04:23:00.805Z,13.20
2022-09-04T04:25:39.202Z,13.20
2022-09-04T04:28:45.493Z,13.20
2022-09-04T04:31:37.751Z,13.20
2022-09-04T04:34:34.672Z,13.10
2022-09-04T04:37:23.200Z,12.90
2022-09-04T04:39:59.885Z,13.00
2022-09-04T04:42:29.629Z,13.10
2022-09-04T04:45:24.199Z,13.00
2022-09-04T04:48:19.858Z,12.90
2022-09-04T04:50:52.813Z,12.80
2022-09-04T04:53:39.867Z,12.90
2022-09-04T04:56:15.413Z,13.00
2022-09-04T04:59:03.687Z,13.00
2022-09-04T05:01:40.075Z,12.90
2022-09-04T05:04:11.831Z,12.90
2022-09-04T05:06:52.905Z,12.80
2022-09-04T05:09:48.440Z,12.90
2022-09-04T05:12:36.710Z,12.90
2022-09-04T05:15:40.695Z,12.80
2022-09-04T05:18:36.299Z,13.00
2022-09-04T05:21:11.919Z,13.00
2022-09-04T05:23:38.671Z,13.10
2022-09-04T05:26:14.656Z,13.20
2022-09-04T05:29:02.472Z,13.30
2022-09-04T05:31:45.607Z,13.30
2022-09-04T05:34:35.789Z,13.40
2022-09-04T05:37:20.688Z,13.40
2022-09-04T05:40:11.749Z,13.50
2022-09-04T05:42:48.805Z,13.50
2022-09-04T05:45:42.118Z,13.60
2022-09-04T05:48:14.666Z,13.80
2022-09-04T05:51:22.652Z,13.80
2022-09-04T05:54:30.850Z,13.90
2022-09-04T05:57:11.400Z,14.00
2022-09-04T05:59:44.185Z,14.10
2022-09-04T06:02:42.212Z,14.20
2022-09-04T06:05:19.100Z,14.30
2022-09-04T06:07:51.966Z,14.30
2022-09-04T06:10:52.826Z,14.40
2022-09-04T06:13:50.189Z,14.50
2022-09-04T06:16:41.159Z,14.60
2022-09-04T06:19:45.547Z,14.80
2022-09-04T06:22:34.408Z,14.90
2022-09-04T06:25:29.656Z,14.90
2022-09-04T06:28:21.643Z,15.00
2022-09-04T06:31:17.353Z,15.00
2022-09-04T06:33:56.538Z,15.20
2022-09-04T06:36:42.434Z,15.30
2022-09-04T06:39:19.030Z,15.40
2022-09-04T06:41:54.470Z,15.40
2022-09-04T06:44:39.468Z,15.60
2022-09-04T06:47:26.477Z,15.70
2022-09-04T06:50:02.138Z,15.80
2022-09-04T06:52:53.059Z,16.00
2022-09-04T06:55:33.531Z,16.10
2022-09-04T06:58:14.343Z,16.30
2022-09-04T07:01:01.696Z,16.50
2022-09-04T07:04:04.784Z,16.70
2022-09-04T07:06:49.791Z,16.90
2022-09-04T07:09:21.925Z,17.00
2022-09-04T07:12:09.230Z,17.10
2022-09-04T07:15:07.007Z,17.30
2022-09-04T07:18:12.623Z,17.40
2022-09-04T07:21:11.234Z,17.50
2022-09-04T07:23:45.041Z,17.70
2022-09-04T07:26:28.473Z,17.80
2022-09-04T07:29:03.847Z,17.90
2022-09-04T07:31:54.227Z,18.00
2022-09-04T07:34:45.443Z,18.20
2022-09-04T07:37:28.059Z,18.30
2022-09-04T07:40:06.514Z,18.30
2022-09-04T07:42:50.270Z,18.60
2022-09-04T07:45:22.492Z,18.80
2022-09-04T07:48:16.879Z,19.00
2022-09-04T07:51:03.504Z,19.10
2022-09-04T07:53:45.337Z,19.10
2022-09-04T07:56:43.095Z,19.20
2022-09-04T07:59:09.832Z,19.20
2022-09-04T08:01:40.598Z,19.30
2022-09-04T08:04:10.274Z,19.20
2022-09-04T08:06:52.645Z,19.20
2022-09-04T08:10:14.315Z,19.30
2022-09-04T08:13:18.525Z,19.50
2022-09-04T08:16:08.138Z,19.50
2022-09-04T08:18:53.403Z,19.60
2022-09-04T08:21:40.154Z,19.50
2022-09-04T08:24:35.851Z,19.60
2022-09-04T08:27:44.362Z,19.80
2022-09-04T08:30:14.540Z,20.00
2022-09-04T08:33:18.808Z,19.90
2022-09-04T08:36:02.023Z,20.00
2022-09-04T08:38:56.691Z,20.10
2022-09-04T08:42:14.379Z,20.30
2022-09-04T08:45:29.509Z,20.30
2022-09-04T08:48:26.971Z,20.20
2022-09-04T08:51:14.043Z,20.40
2022-09-04T08:54:18.469Z,20.70
2022-09-04T08:57:02.823Z,20.50
2022-09-04T09:00:05.997Z,20.70
2022-09-04T09:02:38.858Z,20.90
2022-09-04T09:05:43.158Z,20.80
2022-09-04T09:08:51.190Z,21.00
2022-09-04T09:11:21.734Z,20.90
2022-09-04T09:14:07.307Z,20.70
2022-09-04T09:17:00.253Z,20.50
2022-09-04T09:19:40.038Z,20.40
2022-09-04T09:22:22.556Z,20.40
2022-09-04T09:25:04.660Z,20.70
2022-09-04T09:28:17.672Z,20.90
2022-09-04T09:31:12.363Z,21.30
2022-09-04T09:34:01.111Z,21.30
2022-09-04T09:36:35.560Z,21.30
2022-09-04T09:39:08.408Z,21.50
2022-09-04T09:41:51.868Z,21.60
2022-09-04T09:44:47.780Z,21.80
2022-09-04T09:47:26.608Z,21.90
2022-09-04T09:50:13.276Z,21.60
2022-09-04T09:52:50.990Z,21.70
2022-09-04T09:55:45.697Z,22.00
2022-09-04T09:58:39.800Z,21.90
2022-09-04T10:01:20.939Z,22.00
2022-09-04T10:04:28.580Z,22.20
2022-09-04T10:07:19.865Z,22.00
2022-09-04T10:10:18.414Z,22.00
2022-09-04T10:13:23.207Z,22.30
2022-09-04T10:16:19.355Z,22.20
2022-09-04T10:19:07.954Z,22.50
2022-09-04T10:21:55.849Z,22.80
2022-09-04T10:24:44.397Z,22.70
2022-09-04T10:27:34.747Z,22.70
2022-09-04T10:30:32.771Z,22.70
2022-09-04T10:33:26.488Z,22.60
2022-09-04T10:36:30.975Z,22.90
2022-09-04T10:39:35.622Z,22.80
2022-09-04T10:42:39.777Z,22.90
2022-09-04T10:45:41.752Z,23.10
2022-09-04T10:48:12.773Z,23.20
2022-09-04T10:51:02.053Z,23.30
2022-09-04T10:53:53.021Z,23.10
2022-09-04T10:56:23.960Z,23.00
2022-09-04T10:59:04.032Z,23.00
2022-09-04T11:01:38.642Z,23.40
2022-09-04T11:04:32.559Z,23.60
2022-09-04T11:07:32.369Z,23.70
2022-09-04T11:10:14.662Z,24.00
2022-09-04T11:16:43.218Z,23.00
2022-09-04T11:19:54.569Z,22.70
2022-09-04T11:22:58.132Z,22.70
2022-09-04T11:26:08.003Z,22.90
2022-09-04T11:28:44.395Z,23.40
2022-09-04T11:31:31.670Z,23.60
2022-09-04T11:34:20.306Z,23.10
2022-09-04T11:37:11.501Z,22.80
2022-09-04T11:40:21.968Z,22.80
2022-09-04T11:43:29.158Z,23.00
2022-09-04T11:45:56.435Z,23.60
2022-09-04T11:48:48.734Z,23.90
2022-09-04T11:51:50.868Z,24.20
2022-09-04T11:54:44.124Z,24.20
2022-09-04T11:57:52.548Z,24.50
2022-09-04T12:00:20.351Z,24.50
2022-09-04T12:02:53.140Z,24.50
2022-09-04T12:05:39.394Z,24.30
2022-09-04T12:08:35.776Z,24.10
2022-09-04T12:11:23.262Z,23.80
2022-09-04T12:14:09.528Z,23.40
2022-09-04T12:17:15.613Z,23.20
2022-09-04T12:20:08.176Z,23.00
2022-09-04T12:23:06.699Z,23.00
2022-09-04T12:26:11.728Z,23.00
2022-09-04T12:28:52.641Z,23.10
2022-09-04T12:31:51.598Z,22.90
2022-09-04T12:34:43.170Z,22.90
2022-09-04T12:37:43.713Z,22.90
2022-09-04T12:40:41.849Z,22.80
2022-09-04T12:43:33.737Z,22.70
2022-09-04T12:46:41.877Z,22.70
2022-09-04T12:49:33.375Z,22.60
2022-09-04T12:52:23.617Z,22.60
2022-09-04T12:55:10.060Z,22.60
2022-09-04T12:57:46.832Z,22.70
2022-09-04T13:00:17.489Z,22.70
2022-09-04T13:02:59.421Z,22.70
2022-09-04T13:05:53.076Z,22.70
2022-09-04T13:08:35.608Z,22.60
2022-09-04T13:11:28.428Z,22.50
2022-09-04T13:14:39.167Z,22.40
2022-09-04T13:17:30.916Z,22.60
2022-09-04T13:20:05.400Z,22.80
2022-09-04T13:22:40.976Z,22.80
2022-09-04T13:25:22.136Z,22.70
2022-09-04T13:27:57.390Z,22.40
2022-09-04T13:30:26.592Z,22.20
2022-09-04T13:33:39.969Z,22.10
2022-09-04T13:36:16.605Z,22.20
2022-09-04T13:39:06.822Z,22.50
2022-09-04T13:42:00.753Z,22.30
2022-09-04T13:44:40.949Z,22.30
2022-09-04T13:47:21.329Z,22.10
2022-09-04T13:50:11.172Z,22.30
2022-09-04T13:52:46.231Z,21.90
2022-09-04T13:55:16.009Z,21.90
2022-09-04T13:57:58.746Z,21.30
2022-09-04T14:00:28.615Z,21.00
2022-09-04T14:03:02.090Z,20.60
2022-09-04T14:05:32.037Z,20.20
2022-09-04T14:08:04.074Z,20.20
2022-09-04T14:10:48.865Z,20.40
2022-09-04T14:13:37.690Z,20.60
2022-09-04T14:16:09.084Z,20.70
2022-09-04T14:18:49.271Z,20.40
2022-09-04T14:21:28.061Z,20.30
2022-09-04T14:24:05.127Z,20.10
2022-09-04T14:26:53.968Z,20.00
2022-09-04T14:29:29.136Z,19.70
2022-09-04T14:31:59.056Z,19.50
2022-09-04T14:34:51.248Z,19.20
2022-09-04T14:37:40.442Z,18.80
2022-09-04T14:40:21.627Z,18.90
2022-09-04T14:43:14.995Z,18.80
2022-09-04T14:46:04.854Z,18.60
2022-09-04T14:48:40.447Z,18.60
2022-09-04T14:51:23.565Z,18.60
2022-09-04T14:53:55.399Z,18.60
2022-09-04T14:56:51.879Z,18.40
2022-09-04T14:59:41.395Z,18.40
2022-09-04T15:02:14.844Z,18.40
2022-09-04T15:04:48.139Z,18.40
2022-09-04T15:07:41.499Z,18.50
2022-09-04T15:10:50.410Z,18.50
2022-09-04T15:13:32.069Z,18.50
2022-09-04T15:16:06.631Z,18.40
2022-09-04T15:18:40.650Z,18.60
2022-09-04T15:21:23.147Z,18.70
2022-09-04T15:24:26.924Z,18.80
2022-09-04T15:27:02.136Z,19.00
2022-09-04T15:29:37.199Z,19.10
2022-09-04T15:32:14.027Z,19.20
2022-09-04T15:34:41.662Z,19.10
2022-09-04T15:37:11.493Z,19.20
2022-09-04T15:40:12.569Z,19.20
2022-09-04T15:43:31.653Z,19.00
2022-09-04T15:46:22.893Z,18.90
2022-09-04T15:48:54.491Z,18.60
2022-09-04T15:51:37.057Z,18.40
2022-09-04T15:54:15.571Z,18.50
2022-09-04T15:56:53.820Z,18.30
2022-09-04T15:59:25.074Z,18.10
2022-09-04T16:02:12.642Z,18.20
2022-09-04T16:04:51.001Z,18.10
2022-09-04T16:08:06.790Z,18.10
2022-09-04T16:11:16.659Z,18.20
2022-09-04T16:13:53.003Z,18.20
2022-09-04T16:16:39.990Z,18.20
2022-09-04T16:19:28.642Z,18.10
2022-09-04T16:22:26.288Z,18.00
2022-09-04T16:25:24.055Z,18.00
2022-09-04T16:27:59.105Z,18.00
2022-09-04T16:30:31.390Z,18.00
2022-09-04T16:32:59.204Z,18.10
2022-09-04T16:35:31.515Z,18.00
2022-09-04T16:38:15.838Z,18.00
2022-09-04T16:41:06.162Z,17.90
2022-09-04T16:43:34.354Z,17.90
2022-09-04T16:46:27.587Z,17.90
2022-09-04T16:49:19.767Z,17.90
2022-09-04T16:51:49.307Z,18.00
2022-09-04T16:54:37.295Z,17.90
2022-09-04T16:57:12.849Z,17.90
2022-09-04T17:00:11.715Z,17.90
2022-09-04T17:02:55.661Z,18.00
2022-09-04T17:05:40.927Z,18.10
2022-09-04T17:08:13.725Z,18.10
2022-09-04T17:11:14.385Z,18.10
2022-09-04T17:13:50.054Z,18.10
2022-09-04T17:16:23.217Z,18.00
2022-09-04T17:18:54.762Z,17.60
2022-09-04T17:28:04.898Z,17.50
2022-09-04T17:29:13.984Z,17.50
2022-09-04T17:29:15.595Z,17.50
2022-09-04T17:30:46.067Z,17.10
2022-09-04T17:40:39.971Z,16.80
2022-09-04T17:40:42.842Z,16.90
2022-09-04T17:40:51.889Z,16.70
2022-09-04T17:43:58.576Z,16.60
2022-09-04T17:46:39.942Z,16.70
2022-09-04T17:49:34.522Z,16.40
2022-09-04T17:52:09.161Z,16.40
2022-09-04T17:54:43.131Z,16.40
2022-09-04T17:57:31.607Z,16.20
2022-09-04T18:00:18.507Z,16.00
2022-09-04T18:02:49.057Z,16.00
2022-09-04T18:05:43.500Z,16.20
2022-09-04T18:08:30.262Z,16.20
2022-09-04T18:11:29.024Z,16.00
2022-09-04T18:14:13.568Z,15.80
2022-09-04T18:17:12.508Z,15.70
2022-09-04T18:19:47.554Z,15.60
2022-09-04T18:22:31.873Z,15.80
2022-09-04T18:25:16.739Z,15.80
2022-09-04T18:28:12.868Z,15.80
2022-09-04T18:37:07.811Z,15.80
2022-09-04T18:37:22.651Z,15.80
2022-09-04T18:37:45.137Z,15.60
2022-09-04T18:41:48.082Z,15.60
2022-09-04T18:50:24.469Z,15.70
2022-09-04T18:50:36.090Z,15.80
2022-09-04T18:50:51.327Z,15.80
2022-09-04T18:52:17.871Z,15.70
2022-09-04T18:54:57.462Z,15.60
2022-09-04T18:57:58.132Z,15.50
2022-09-04T19:00:34.981Z,15.40
2022-09-04T19:03:12.632Z,15.40
2022-09-04T19:05:44.736Z,15.60
2022-09-04T19:08:21.841Z,15.70
2022-09-04T19:10:56.703Z,15.60
2022-09-04T19:13:48.112Z,15.20
2022-09-04T19:16:31.607Z,15.10
2022-09-04T19:19:05.661Z,15.20
2022-09-04T19:21:42.007Z,15.10
2022-09-04T19:24:22.747Z,15.00
2022-09-04T19:26:57.312Z,15.10
2022-09-04T19:29:42.834Z,15.10
2022-09-04T19:32:18.877Z,14.90
2022-09-04T19:34:49.232Z,14.80
2022-09-04T19:44:47.191Z,14.90
2022-09-04T19:45:57.736Z,15.00
2022-09-04T19:46:12.705Z,15.10
2022-09-04T19:46:53.960Z,15.10
2022-09-04T19:53:18.629Z,14.90
2022-09-04T19:53:40.659Z,14.80
2022-09-04T19:55:55.600Z,14.90
2022-09-04T19:58:52.433Z,14.90
2022-09-04T20:01:33.038Z,14.90
2022-09-04T20:04:08.667Z,14.80
2022-09-04T20:06:46.619Z,14.50
2022-09-04T20:09:24.167Z,14.60
2022-09-04T20:12:00.869Z,14.60
2022-09-04T20:15:18.183Z,14.40
2022-09-04T20:17:53.906Z,14.30
2022-09-04T20:20:27.807Z,14.60
2022-09-04T20:23:03.953Z,14.60
2022-09-04T20:26:10.485Z,14.60
2022-09-04T20:28:48.288Z,14.50
2022-09-04T20:31:28.791Z,14.20
2022-09-04T20:34:25.043Z,14.30
2022-09-04T20:37:14.093Z,14.40
2022-09-04T20:39:48.928Z,14.40
2022-09-04T20:42:27.475Z,14.40
2022-09-04T20:46:51.365Z,14.50
2022-09-04T20:52:51.802Z,14.50
2022-09-04T20:52:57.430Z,14.50
2022-09-04T20:54:28.456Z,14.30
2022-09-04T21:02:00.451Z,14.10
2022-09-04T21:03:20.358Z,14.00
2022-09-04T21:03:35.690Z,14.10
2022-09-04T21:06:15.724Z,14.20
2022-09-04T21:09:10.784Z,14.30
2022-09-04T21:11:43.459Z,14.30
2022-09-04T21:14:19.261Z,14.20
2022-09-04T21:16:51.809Z,14.10
2022-09-04T21:19:29.037Z,14.00
2022-09-04T21:22:33.237Z,14.00
2022-09-04T21:25:05.234Z,14.00
2022-09-04T21:28:11.034Z,14.10
2022-09-04T21:31:02.697Z,14.00
2022-09-04T21:33:39.297Z,13.90
2022-09-04T21:36:26.793Z,13.80
2022-09-04T21:39:19.022Z,13.80
2022-09-04T21:42:01.616Z,13.90
2022-09-04T21:44:43.147Z,13.90
2022-09-04T21:47:45.030Z,13.90
2022-09-04T21:50:30.916Z,14.00
2022-09-04T21:53:17.106Z,14.00
2022-09-04T22:00:56.267Z,14.10
2022-09-04T22:02:37.960Z,14.10
2022-09-04T22:02:38.115Z,14.10
2022-09-04T22:05:18.432Z,14.10
2022-09-04T22:11:19.446Z,14.10
2022-09-04T22:13:42.210Z,14.10
2022-09-04T22:14:21.069Z,13.90
2022-09-04T22:17:06.697Z,14.00
2022-09-04T22:19:59.750Z,13.80
2022-09-04T22:22:49.180Z,13.70
2022-09-04T22:25:33.960Z,13.70
2022-09-04T22:28:37.849Z,13.70
2022-09-04T22:31:24.320Z,13.70
2022-09-04T22:34:27.528Z,13.80
2022-09-04T22:37:32.347Z,13.70
2022-09-04T22:40:17.509Z,13.50
2022-09-04T22:43:09.014Z,13.50
2022-09-04T22:46:17.091Z,13.60
2022-09-04T22:49:12.498Z,13.70
2022-09-04T22:52:02.432Z,13.70
2022-09-04T22:54:45.889Z,13.80
2022-09-04T22:57:45.177Z,13.80
2022-09-04T23:00:18.955Z,13.60
2022-09-04T23:03:08.496Z,13.40
2022-09-04T23:05:45.084Z,13.40
2022-09-04T23:13:42.562Z,13.40
2022-09-04T23:13:48.524Z,13.30
2022-09-04T23:15:19.837Z,13.30
2022-09-04T23:21:34.032Z,13.40
2022-09-04T23:26:43.938Z,13.50
2022-09-04T23:26:49.610Z,13.50
2022-09-04T23:27:29.950Z,13.30
2022-09-04T23:30:10.226Z,13.20
2022-09-04T23:32:53.884Z,13.20
2022-09-04T23:35:42.387Z,13.20
2022-09-04T23:38:18.142Z,13.20
2022-09-04T23:41:04.548Z,13.10
2022-09-04T23:43:49.897Z,13.10
2022-09-04T23:46:55.834Z,13.20
2022-09-04T23:49:44.656Z,13.10
2022-09-04T23:52:48.708Z,13.10
2022-09-04T23:55:48.920Z,13.10
2022-09-04T23:59:02.826Z,13.20
